Time;durP1;ratioP1;P1;durP2;ratioP2;P2;SDS_P1;SDS_P2;PMS_P1;PMS_P2;Temp;Humidity;BMP_temperature;BMP_pressure;BME280_temperature;BME280_humidity;BME280_pressure;Samples;Min_cycle;Max_cycle;Signal;HPM_P1;HPM_P2
2022/04/17 00:02:03;;;;;;;4.47;2.35;;;10.60;49.50;;;;;;5043230;28;20031;-68
2022/04/17 00:04:29;;;;;;;4.93;2.75;;;10.60;49.50;;;;;;5038232;28;20028;-68
2022/04/17 00:06:55;;;;;;;3.85;2.33;;;10.60;49.50;;;;;;5031446;28;20366;-68
2022/04/17 00:09:20;;;;;;;3.35;2.05;;;10.60;49.50;;;;;;5045415;28;20029;-67
2022/04/17 00:11:46;;;;;;;4.55;2.13;;;10.60;49.40;;;;;;5051178;28;20071;-68
2022/04/17 00:14:12;;;;;;;3.97;2.25;;;10.50;49.50;;;;;;5032820;28;20032;-68
2022/04/17 00:16:40;;;;;;;3.35;2.20;;;10.50;49.50;;;;;;5031762;28;20037;-67
2022/04/17 00:19:06;;;;;;;2.95;2.00;;;10.50;49.50;;;;;;5042299;28;20018;-67
2022/04/17 00:21:32;;;;;;;4.63;2.40;;;10.40;49.50;;;;;;5036130;28;20021;-67
2022/04/17 00:23:58;;;;;;;4.28;2.45;;;10.40;49.60;;;;;;5046939;28;20913;-68
2022/04/17 00:26:23;;;;;;;4.32;2.67;;;10.40;49.70;;;;;;5032501;28;20133;-67
2022/04/17 00:28:49;;;;;;;4.88;2.80;;;10.30;49.70;;;;;;5029702;28;20053;-68
2022/04/17 00:31:14;;;;;;;3.80;2.13;;;10.30;49.90;;;;;;5040802;28;20027;-68
2022/04/17 00:33:40;;;;;;;4.70;2.40;;;10.30;50.00;;;;;;5031685;28;20075;-67
2022/04/17 00:36:05;;;;;;;4.10;2.42;;;10.20;50.00;;;;;;5035851;28;20069;-67
2022/04/17 00:38:31;;;;;;;4.35;2.70;;;10.20;50.20;;;;;;5035332;28;20495;-67
2022/04/17 00:40:56;;;;;;;4.53;2.60;;;10.10;50.30;;;;;;5038543;28;20103;-67
2022/04/17 00:43:30;;;;;;;4.10;2.70;;;10.10;50.50;;;;;;5039198;28;20022;-68
2022/04/17 00:45:56;;;;;;;5.43;2.42;;;10.00;50.70;;;;;;5037900;28;20060;-67
2022/04/17 00:48:22;;;;;;;3.88;2.40;;;9.90;50.80;;;;;;5039544;28;20029;-67
2022/04/17 00:50:56;;;;;;;4.00;2.35;;;9.90;50.90;;;;;;5034826;28;20091;-67
2022/04/17 00:53:24;;;;;;;4.78;2.80;;;9.80;51.10;;;;;;5031603;28;20025;-67
2022/04/17 00:55:50;;;;;;;4.07;2.08;;;9.70;51.20;;;;;;5040351;28;20064;-67
2022/04/17 00:58:16;;;;;;;4.40;2.47;;;9.70;51.40;;;;;;5031658;28;20511;-67
2022/04/17 01:00:42;;;;;;;5.07;2.50;;;9.60;51.40;;;;;;5040346;28;20033;-67
2022/04/17 01:03:10;;;;;;;4.97;2.58;;;9.60;51.50;;;;;;5031859;28;20100;-68
2022/04/17 01:05:39;;;;;;;3.95;2.42;;;9.50;51.50;;;;;;5036967;28;20381;-67
2022/04/17 01:08:06;;;;;;;4.63;2.70;;;9.50;51.80;;;;;;5037195;28;20446;-67
2022/04/17 01:10:32;;;;;;;4.68;2.58;;;9.40;51.90;;;;;;5037606;28;20104;-67
2022/04/17 01:12:59;;;;;;;5.15;2.90;;;9.40;52.00;;;;;;5039974;28;20096;-68
2022/04/17 01:15:25;;;;;;;4.32;2.70;;;9.40;52.00;;;;;;5034280;28;20075;-67
2022/04/17 01:17:51;;;;;;;4.50;2.80;;;9.40;52.10;;;;;;5044129;28;20034;-67
2022/04/17 01:20:17;;;;;;;5.47;2.85;;;9.30;52.00;;;;;;5038219;28;20029;-68
2022/04/17 01:22:49;;;;;;;5.40;3.13;;;9.30;52.00;;;;;;5035411;28;20554;-67
2022/04/17 01:28:03;;;;;;;5.50;2.50;;;9.20;52.00;;;;;;5036360;28;20104;-67
2022/04/17 01:30:29;;;;;;;4.03;2.50;;;9.20;52.00;;;;;;5040055;28;20032;-67
2022/04/17 01:32:54;;;;;;;5.55;2.95;;;9.20;52.10;;;;;;5031405;28;20029;-67
2022/04/17 01:35:20;;;;;;;6.47;3.28;;;9.10;52.00;;;;;;5033184;28;20585;-67
2022/04/17 01:37:49;;;;;;;5.35;3.53;;;9.10;52.20;;;;;;5036816;28;20040;-67
2022/04/17 01:40:15;;;;;;;4.73;3.13;;;9.10;52.30;;;;;;5033994;28;20152;-68
2022/04/17 01:42:40;;;;;;;4.68;2.85;;;9.00;52.40;;;;;;5039569;28;20100;-67
2022/04/17 01:45:06;;;;;;;6.68;3.22;;;9.00;52.40;;;;;;5032412;28;20025;-67
2022/04/17 01:47:32;;;;;;;5.00;3.35;;;8.90;52.50;;;;;;5049249;28;20025;-67
2022/04/17 01:49:57;;;;;;;5.82;3.55;;;8.80;52.80;;;;;;5032763;28;20029;-67
2022/04/17 01:52:23;;;;;;;5.30;3.40;;;8.70;53.70;;;;;;5033839;28;20091;-67
2022/04/17 01:54:48;;;;;;;4.68;3.42;;;8.60;53.30;;;;;;5036633;28;20040;-68
2022/04/17 01:57:14;;;;;;;6.65;3.40;;;8.50;53.70;;;;;;5036394;28;20028;-67
2022/04/17 01:59:40;;;;;;;4.45;3.20;;;8.40;54.00;;;;;;5036604;28;20469;-68
2022/04/17 02:02:05;;;;;;;3.83;2.75;;;8.30;54.40;;;;;;5035820;28;20385;-67
2022/04/17 02:04:35;;;;;;;4.78;3.38;;;8.20;54.70;;;;;;5033864;28;20030;-67
2022/04/17 02:07:04;;;;;;;4.25;2.63;;;8.10;55.10;;;;;;5036710;28;20021;-68
2022/04/17 02:09:30;;;;;;;5.00;3.05;;;8.10;55.40;;;;;;5036860;28;20079;-67
2022/04/17 02:11:56;;;;;;;5.72;3.25;;;8.00;55.50;;;;;;5034434;28;20432;-67
2022/04/17 02:14:22;;;;;;;5.70;3.15;;;8.00;55.70;;;;;;5043190;28;20021;-68
2022/04/17 02:16:48;;;;;;;4.85;3.33;;;7.90;55.70;;;;;;5036169;28;20116;-67
2022/04/17 02:19:14;;;;;;;6.43;3.28;;;7.90;55.70;;;;;;5029532;28;20105;-68
2022/04/17 02:21:39;;;;;;;6.55;4.07;;;7.90;55.80;;;;;;5040804;28;20033;-66
2022/04/17 02:24:05;;;;;;;5.93;4.13;;;7.80;55.70;;;;;;5033838;28;20025;-67
2022/04/17 02:26:31;;;;;;;5.70;3.83;;;7.80;55.90;;;;;;5036455;28;20120;-67
2022/04/17 02:28:59;;;;;;;6.18;4.00;;;7.70;55.90;;;;;;5040421;28;20029;-67
2022/04/17 02:31:25;;;;;;;6.32;3.80;;;7.70;56.20;;;;;;5036088;28;20022;-67
2022/04/17 02:33:51;;;;;;;6.53;3.60;;;7.60;56.50;;;;;;5035972;28;20045;-67
2022/04/17 02:36:18;;;;;;;5.85;3.80;;;7.50;56.90;;;;;;5030983;28;20034;-67
2022/04/17 02:38:43;;;;;;;6.28;3.97;;;7.50;57.00;;;;;;5033090;28;20071;-67
2022/04/17 02:41:09;;;;;;;5.18;3.67;;;7.50;57.00;;;;;;5039086;28;20021;-68
2022/04/17 02:43:34;;;;;;;5.03;3.40;;;7.50;57.10;;;;;;5031707;28;20037;-67
2022/04/17 02:46:00;;;;;;;5.90;3.70;;;7.40;57.10;;;;;;5032301;28;20432;-67
2022/04/17 02:48:26;;;;;;;5.40;3.90;;;7.40;57.40;;;;;;5035993;28;20057;-67
2022/04/17 02:50:52;;;;;;;4.90;3.55;;;7.40;57.60;;;;;;5030470;28;20429;-68
2022/04/17 02:53:18;;;;;;;7.90;3.78;;;7.30;57.90;;;;;;5031361;28;20033;-68
2022/04/17 02:55:47;;;;;;;6.43;3.95;;;7.30;58.10;;;;;;5031683;28;20022;-67
2022/04/17 02:58:12;;;;;;;4.45;3.47;;;7.30;58.40;;;;;;5030293;28;20060;-67
2022/04/17 03:06:10;;;;;;;6.30;3.65;;;7.20;58.40;;;;;;5036028;28;20481;-67
2022/04/17 03:08:41;;;;;;;6.22;3.80;;;7.20;58.10;;;;;;5033276;28;20484;-67
2022/04/17 03:11:07;;;;;;;6.35;3.58;;;7.20;58.00;;;;;;5035494;28;20067;-68
2022/04/17 03:13:33;;;;;;;7.45;4.53;;;7.20;57.90;;;;;;5032532;28;20443;-67
2022/04/17 03:15:59;;;;;;;9.18;4.88;;;7.20;58.20;;;;;;5033970;28;20029;-67
2022/04/17 03:18:24;;;;;;;7.72;4.40;;;7.20;58.30;;;;;;5036187;28;20030;-67
2022/04/17 03:20:50;;;;;;;6.80;4.18;;;7.10;58.20;;;;;;5037292;28;20025;-67
2022/04/17 03:23:16;;;;;;;6.53;3.80;;;7.10;58.20;;;;;;5042540;28;20049;-67
2022/04/17 03:25:42;;;;;;;6.35;3.95;;;7.10;58.20;;;;;;5037727;28;20105;-67
2022/04/17 03:28:08;;;;;;;6.38;4.32;;;7.10;58.40;;;;;;5034389;28;20102;-67
2022/04/17 03:30:33;;;;;;;5.88;3.90;;;7.10;58.40;;;;;;5051663;28;20029;-67
2022/04/17 03:33:00;;;;;;;6.63;3.83;;;7.10;59.00;;;;;;5041911;28;20090;-67
2022/04/17 03:35:26;;;;;;;5.57;3.80;;;7.10;58.30;;;;;;5038189;28;20028;-67
2022/04/17 03:37:53;;;;;;;7.05;4.70;;;7.10;58.20;;;;;;5039063;28;20025;-67
2022/04/17 03:40:18;;;;;;;6.95;4.35;;;7.00;58.20;;;;;;5034775;28;20028;-67
2022/04/17 03:42:44;;;;;;;6.13;4.28;;;7.00;58.10;;;;;;5036821;28;20025;-67
2022/04/17 03:45:11;;;;;;;5.80;3.97;;;7.00;58.10;;;;;;5039265;28;20013;-67
2022/04/17 03:47:38;;;;;;;6.05;3.95;;;7.00;58.00;;;;;;5037427;28;20125;-67
2022/04/17 03:50:04;;;;;;;5.15;3.38;;;7.00;58.10;;;;;;5036819;28;20547;-67
2022/04/17 03:52:45;;;;;;;6.30;3.92;;;7.00;58.00;;;;;;5042876;28;20481;-68
2022/04/17 03:55:11;;;;;;;5.85;3.78;;;7.00;58.10;;;;;;5042132;28;20069;-67
2022/04/17 03:57:37;;;;;;;7.55;4.20;;;7.00;58.20;;;;;;5046851;28;20045;-67
2022/04/17 04:00:05;;;;;;;6.93;3.72;;;6.90;58.20;;;;;;5059363;28;20494;-67
2022/04/17 04:02:31;;;;;;;6.07;3.80;;;6.90;58.30;;;;;;5033071;28;20085;-67
2022/04/17 04:04:57;;;;;;;7.57;3.58;;;6.90;58.30;;;;;;5035928;28;20120;-68
2022/04/17 04:07:23;;;;;;;5.10;3.50;;;6.80;58.30;;;;;;5033390;28;20476;-67
2022/04/17 04:09:49;;;;;;;5.07;3.33;;;6.80;58.40;;;;;;5035780;28;20079;-68
2022/04/17 04:12:14;;;;;;;7.13;3.58;;;6.80;58.50;;;;;;5032780;28;20033;-67
2022/04/17 04:14:40;;;;;;;5.10;2.95;;;6.80;58.60;;;;;;5036934;28;20030;-67
2022/04/17 04:17:05;;;;;;;5.25;3.45;;;6.70;58.70;;;;;;5040867;28;20028;-67
2022/04/17 04:19:31;;;;;;;5.55;3.20;;;6.70;58.80;;;;;;5033348;28;20477;-67
2022/04/17 04:21:56;;;;;;;5.10;2.90;;;6.70;58.90;;;;;;5036414;28;20525;-67
2022/04/17 04:24:24;;;;;;;4.00;3.35;;;6.70;59.00;;;;;;5033099;28;20026;-67
2022/04/17 04:29:35;;;;;;;8.32;4.47;;;6.60;59.20;;;;;;5038573;28;20590;-66
2022/04/17 04:32:01;;;;;;;7.35;4.32;;;6.60;59.30;;;;;;5040117;28;20039;-66
2022/04/17 04:34:27;;;;;;;7.63;4.43;;;6.50;59.50;;;;;;5035726;28;20477;-66
2022/04/17 04:36:52;;;;;;;6.45;4.20;;;6.50;59.60;;;;;;5035262;28;20033;-66
2022/04/17 04:39:17;;;;;;;7.50;4.10;;;6.40;59.80;;;;;;5040608;28;20033;-66
2022/04/17 04:41:44;;;;;;;5.55;4.00;;;6.40;60.00;;;;;;5035167;28;20424;-66
2022/04/17 04:44:10;;;;;;;6.95;4.03;;;6.30;60.20;;;;;;5031968;28;20045;-66
2022/04/17 04:46:35;;;;;;;7.70;4.30;;;6.30;60.40;;;;;;5033651;28;20482;-66
2022/04/17 04:51:45;;;;;;;7.10;3.92;;;6.30;60.70;;;;;;5038486;28;20106;-66
2022/04/17 04:54:10;;;;;;;6.57;4.65;;;6.20;60.60;;;;;;5037717;28;20489;-66
2022/04/17 04:56:36;;;;;;;6.97;3.92;;;6.20;60.60;;;;;;5038619;28;20509;-67
2022/04/17 04:59:01;;;;;;;7.28;4.68;;;6.20;60.70;;;;;;5033602;28;20030;-66
2022/04/17 05:01:27;;;;;;;7.65;4.60;;;6.20;60.90;;;;;;5034353;28;20112;-66
2022/04/17 05:03:52;;;;;;;7.35;4.47;;;6.20;61.10;;;;;;5044599;28;20477;-67
2022/04/17 05:06:18;;;;;;;5.75;3.40;;;6.20;61.20;;;;;;5032533;28;20029;-65
2022/04/17 05:08:43;;;;;;;5.70;4.40;;;6.20;61.20;;;;;;5033129;28;20389;-66
2022/04/17 05:11:09;;;;;;;5.82;3.78;;;6.10;61.20;;;;;;5032504;28;20034;-66
2022/04/17 05:13:35;;;;;;;7.72;4.60;;;6.20;61.30;;;;;;5032923;28;20037;-66
2022/04/17 05:16:02;;;;;;;7.55;4.70;;;6.10;61.40;;;;;;5032706;28;20029;-67
2022/04/17 05:18:27;;;;;;;7.97;5.30;;;6.10;61.60;;;;;;5032975;28;20093;-65
2022/04/17 05:20:54;;;;;;;7.70;4.95;;;6.00;61.80;;;;;;5032998;28;20101;-66
2022/04/17 05:23:22;;;;;;;7.22;4.40;;;6.00;62.10;;;;;;5031219;28;20409;-66
2022/04/17 05:25:51;;;;;;;7.03;4.97;;;6.00;62.20;;;;;;5031620;28;20025;-66
2022/04/17 05:28:18;;;;;;;7.03;4.45;;;6.00;62.50;;;;;;5031524;28;20485;-66
2022/04/17 05:30:44;;;;;;;6.82;4.30;;;6.00;62.80;;;;;;5032575;28;20036;-66
2022/04/17 05:33:10;;;;;;;8.48;5.03;;;6.00;63.00;;;;;;5032107;28;20036;-65
2022/04/17 05:35:36;;;;;;;8.13;5.38;;;6.10;63.30;;;;;;5050598;28;20435;-65
2022/04/17 05:38:02;;;;;;;9.88;6.13;;;6.10;63.50;;;;;;5052072;28;20036;-65
2022/04/17 05:40:33;;;;;;;8.88;5.65;;;6.00;63.70;;;;;;5052492;28;20032;-66
2022/04/17 05:42:58;;;;;;;9.35;6.03;;;6.00;63.70;;;;;;5051013;28;20025;-65
2022/04/17 05:45:24;;;;;;;10.20;6.00;;;6.10;63.90;;;;;;5050683;28;20120;-66
2022/04/17 05:47:49;;;;;;;9.52;6.35;;;6.10;64.10;;;;;;5032367;28;20474;-65
2022/04/17 05:50:15;;;;;;;9.23;6.40;;;6.10;64.60;;;;;;5032373;28;20484;-65
2022/04/17 05:52:41;;;;;;;9.63;7.10;;;6.10;65.00;;;;;;5031091;28;20028;-65
2022/04/17 05:55:09;;;;;;;8.80;6.30;;;6.10;65.80;;;;;;5042246;28;20032;-65
2022/04/17 05:57:35;;;;;;;8.35;6.15;;;6.10;66.00;;;;;;5042242;28;20480;-66
2022/04/17 06:00:01;;;;;;;11.77;8.10;;;6.20;66.00;;;;;;5050091;28;20078;-66
2022/04/17 06:02:27;;;;;;;10.98;7.35;;;6.20;66.70;;;;;;5047264;28;20021;-66
2022/04/17 06:04:53;;;;;;;9.32;6.75;;;6.30;66.90;;;;;;5050333;28;20031;-66
2022/04/17 06:07:26;;;;;;;8.82;6.68;;;6.30;66.80;;;;;;5044921;28;20361;-66
2022/04/17 06:09:52;;;;;;;7.30;5.57;;;6.40;67.00;;;;;;5051568;28;20029;-66
2022/04/17 06:12:17;;;;;;;9.98;6.10;;;6.40;66.80;;;;;;5050726;28;20041;-66
2022/04/17 06:14:43;;;;;;;8.82;5.72;;;6.40;66.70;;;;;;5051974;28;20017;-66
2022/04/17 06:17:10;;;;;;;7.82;5.35;;;6.50;66.60;;;;;;5051902;28;20036;-65
2022/04/17 06:19:36;;;;;;;7.82;5.07;;;6.50;66.50;;;;;;5052070;28;20500;-66
2022/04/17 06:22:01;;;;;;;8.90;5.30;;;6.60;66.50;;;;;;5051762;28;20048;-65
2022/04/17 06:24:27;;;;;;;7.10;5.15;;;6.60;66.90;;;;;;5051517;28;20235;-66
2022/04/17 06:26:52;;;;;;;8.70;5.90;;;6.70;66.20;;;;;;5051832;28;20512;-67
2022/04/17 06:29:18;;;;;;;7.68;4.65;;;6.80;66.00;;;;;;5043679;28;20037;-66
2022/04/17 06:31:45;;;;;;;6.15;4.70;;;6.80;65.80;;;;;;5046521;28;20434;-67
2022/04/17 06:34:12;;;;;;;7.65;4.35;;;6.90;64.60;;;;;;5030493;28;20025;-66
2022/04/17 06:36:38;;;;;;;6.38;3.85;;;7.00;64.40;;;;;;5051592;28;20253;-66
2022/04/17 06:39:04;;;;;;;6.45;3.58;;;7.10;64.10;;;;;;5051885;28;20032;-66
2022/04/17 06:41:30;;;;;;;5.25;3.58;;;7.20;63.40;;;;;;5051701;28;20018;-66
2022/04/17 06:43:55;;;;;;;10.75;4.05;;;7.20;63.10;;;;;;5050505;28;20048;-66
2022/04/17 06:46:21;;;;;;;8.80;4.90;;;7.30;62.70;;;;;;5051018;28;20025;-66
2022/04/17 06:48:46;;;;;;;6.90;4.07;;;7.40;62.70;;;;;;5055801;28;20029;-66
2022/04/17 06:51:12;;;;;;;6.13;4.03;;;7.50;62.00;;;;;;5055608;28;20578;-66
2022/04/17 06:53:37;;;;;;;8.93;4.45;;;7.50;61.90;;;;;;5055602;28;20033;-67
2022/04/17 06:56:03;;;;;;;7.93;4.38;;;7.60;62.80;;;;;;5054549;28;20400;-66
2022/04/17 06:58:29;;;;;;;6.45;4.38;;;7.70;64.50;;;;;;5053876;28;20033;-66
2022/04/17 07:00:54;;;;;;;13.98;5.32;;;7.80;62.80;;;;;;5054575;28;20021;-67
2022/04/17 07:03:20;;;;;;;8.55;5.53;;;7.80;62.30;;;;;;5054678;28;20033;-66
2022/04/17 07:05:46;;;;;;;5.32;3.90;;;7.90;63.50;;;;;;5050656;28;20036;-66
2022/04/17 07:08:11;;;;;;;7.05;4.20;;;7.90;63.30;;;;;;5054030;28;20066;-66
2022/04/17 07:10:39;;;;;;;8.15;5.03;;;8.00;62.30;;;;;;5051554;28;20521;-66
2022/04/17 07:13:11;;;;;;;8.90;4.60;;;8.10;62.00;;;;;;5035021;28;20028;-67
2022/04/17 07:15:37;;;;;;;6.53;4.10;;;8.20;62.00;;;;;;5043928;28;20029;-66
2022/04/17 07:18:02;;;;;;;7.03;4.68;;;8.20;61.90;;;;;;5053210;28;20044;-66
2022/04/17 07:20:29;;;;;;;6.47;3.97;;;8.20;62.30;;;;;;5048592;28;20039;-66
2022/04/17 07:22:54;;;;;;;5.93;3.72;;;8.30;62.50;;;;;;5050818;28;20037;-67
2022/04/17 07:25:20;;;;;;;6.60;4.07;;;8.40;61.70;;;;;;5050436;28;20033;-66
2022/04/17 07:27:50;;;;;;;10.10;4.65;;;8.40;61.40;;;;;;5053517;28;20451;-66
2022/04/17 07:30:18;;;;;;;7.88;4.60;;;8.50;62.10;;;;;;5055145;28;20021;-66
2022/04/17 07:32:48;;;;;;;5.20;4.30;;;8.60;61.40;;;;;;5055006;28;20029;-66
2022/04/17 07:35:15;;;;;;;6.22;4.57;;;8.60;61.00;;;;;;5054685;28;20079;-66
2022/04/17 07:37:41;;;;;;;7.15;3.95;;;8.80;61.60;;;;;;5054523;28;20031;-66
2022/04/17 07:40:15;;;;;;;7.45;4.32;;;8.80;61.60;;;;;;5053539;28;20017;-66
2022/04/17 07:42:42;;;;;;;5.72;3.78;;;8.90;60.60;;;;;;5054663;28;20095;-66
2022/04/17 07:45:09;;;;;;;5.70;3.70;;;9.00;62.30;;;;;;5054556;28;20029;-66
2022/04/17 07:47:34;;;;;;;6.35;3.72;;;9.10;61.20;;;;;;5053234;28;20384;-66
2022/04/17 07:50:00;;;;;;;7.15;3.65;;;9.20;59.80;;;;;;5054665;28;20033;-66
2022/04/17 07:52:25;;;;;;;6.40;3.95;;;9.20;60.70;;;;;;5054693;28;20108;-67
2022/04/17 07:54:51;;;;;;;5.43;3.65;;;9.30;62.00;;;;;;5054680;28;20025;-66
2022/04/17 07:57:16;;;;;;;5.63;4.00;;;9.50;60.30;;;;;;5043299;28;20485;-66
2022/04/17 07:59:42;;;;;;;8.05;4.13;;;9.60;59.50;;;;;;5033260;28;20022;-66
2022/04/17 08:02:21;;;;;;;5.38;3.40;;;9.70;59.60;;;;;;5034109;28;20120;-66
2022/04/17 08:04:48;;;;;;;7.47;3.22;;;9.80;59.60;;;;;;5034340;28;20095;-66
2022/04/17 08:07:14;;;;;;;6.10;3.28;;;9.80;59.30;;;;;;5034251;28;20040;-66
2022/04/17 08:09:39;;;;;;;7.07;4.00;;;9.90;59.50;;;;;;5034548;28;20025;-66
2022/04/17 08:12:05;;;;;;;5.65;3.50;;;10.00;59.60;;;;;;5047765;28;20044;-66
2022/04/17 08:14:31;;;;;;;4.68;3.15;;;10.10;59.00;;;;;;5054058;28;20116;-66
2022/04/17 08:16:56;;;;;;;4.82;3.03;;;10.20;59.00;;;;;;5054042;28;20025;-66
2022/04/17 08:19:22;;;;;;;4.53;3.00;;;10.20;58.30;;;;;;5053718;28;20031;-67
2022/04/17 08:21:47;;;;;;;5.38;3.65;;;10.30;58.50;;;;;;5053696;28;20045;-66
2022/04/17 08:24:13;;;;;;;5.20;3.22;;;10.40;57.80;;;;;;5052992;28;20110;-66
2022/04/17 08:26:38;;;;;;;5.13;3.35;;;10.50;58.60;;;;;;5052393;28;20044;-67
2022/04/17 08:29:04;;;;;;;6.38;3.40;;;10.60;58.10;;;;;;5046732;28;20049;-66
2022/04/17 08:31:29;;;;;;;4.88;3.10;;;10.70;57.00;;;;;;5049387;28;20104;-66
2022/04/17 08:33:55;;;;;;;6.18;3.28;;;10.80;57.30;;;;;;5051613;28;20435;-66
2022/04/17 08:36:20;;;;;;;5.47;3.45;;;10.90;56.60;;;;;;5048928;28;20028;-66
2022/04/17 08:38:46;;;;;;;4.28;3.03;;;11.00;56.60;;;;;;5052106;28;20416;-66
2022/04/17 08:41:12;;;;;;;6.40;3.10;;;11.00;56.00;;;;;;5053288;28;20055;-66
2022/04/17 08:43:37;;;;;;;6.93;3.20;;;11.20;56.70;;;;;;5053021;28;20029;-66
2022/04/17 08:46:03;;;;;;;4.78;2.85;;;11.30;56.10;;;;;;5051724;28;20028;-66
2022/04/17 08:48:31;;;;;;;3.85;2.80;;;11.40;56.50;;;;;;5048969;28;20052;-66
2022/04/17 08:50:58;;;;;;;4.07;3.00;;;11.40;56.80;;;;;;5051935;28;20027;-66
2022/04/17 08:53:25;;;;;;;5.93;2.70;;;11.50;55.40;;;;;;5049161;28;20024;-66
2022/04/17 08:55:54;;;;;;;4.72;2.92;;;11.60;54.90;;;;;;5049010;28;20547;-66
2022/04/17 08:58:19;;;;;;;4.93;2.75;;;11.60;54.80;;;;;;5048574;28;20033;-66
2022/04/17 09:00:45;;;;;;;4.43;2.72;;;11.60;55.40;;;;;;5051656;28;20028;-66
2022/04/17 09:03:12;;;;;;;4.38;2.78;;;11.70;55.90;;;;;;5030757;28;20020;-66
2022/04/17 09:05:38;;;;;;;3.67;2.20;;;11.80;55.50;;;;;;5051537;28;20059;-66
2022/04/17 09:08:18;;;;;;;3.38;2.45;;;11.90;56.20;;;;;;5048850;28;20045;-67
2022/04/17 09:10:57;;;;;;;3.67;2.45;;;12.00;56.30;;;;;;5049676;28;20021;-66
2022/04/17 09:13:30;;;;;;;3.80;2.58;;;12.10;54.50;;;;;;5048647;28;20491;-67
2022/04/17 09:15:56;;;;;;;5.22;2.80;;;12.20;54.80;;;;;;5048066;28;20028;-66
2022/04/17 09:18:22;;;;;;;4.55;2.83;;;12.20;53.60;;;;;;5043948;28;20021;-66
2022/04/17 09:20:48;;;;;;;3.70;2.80;;;12.30;54.20;;;;;;5044109;28;20095;-66
2022/04/17 09:23:14;;;;;;;4.30;2.10;;;12.30;53.60;;;;;;5042775;28;20045;-67
2022/04/17 09:25:43;;;;;;;4.25;2.67;;;12.40;53.80;;;;;;5045674;28;20108;-67
2022/04/17 09:28:08;;;;;;;4.70;2.90;;;12.40;53.50;;;;;;5038706;28;20025;-66
2022/04/17 09:30:45;;;;;;;5.03;2.78;;;12.50;53.80;;;;;;5046480;28;20812;-66
2022/04/17 09:33:14;;;;;;;3.55;2.65;;;12.60;53.20;;;;;;5062080;28;20064;-66
2022/04/17 09:35:40;;;;;;;;;;;12.60;53.30;;;;;;5044705;28;20025;-66
2022/04/17 09:38:08;;;;;;;3.90;2.03;;;12.60;51.50;;;;;;5052419;28;19915;-66
2022/04/17 09:40:36;;;;;;;4.40;2.65;;;12.60;51.70;;;;;;5052548;28;20476;-66
2022/04/17 09:43:15;;;;;;;4.88;2.40;;;12.70;51.80;;;;;;5052008;28;20017;-66
2022/04/17 09:45:56;;;;;;;3.58;1.77;;;12.80;51.50;;;;;;5051228;28;20032;-66
2022/04/17 09:48:22;;;;;;;3.35;2.28;;;12.90;52.30;;;;;;5052115;28;20051;-66
2022/04/17 09:50:47;;;;;;;4.50;2.35;;;13.00;52.00;;;;;;5052355;28;20211;-66
2022/04/17 09:53:34;;;;;;;4.43;2.47;;;13.00;50.30;;;;;;5052171;28;20507;-66
2022/04/17 09:56:07;;;;;;;4.05;2.15;;;13.00;51.30;;;;;;5050919;28;20392;-67
2022/04/17 09:58:45;;;;;;;3.35;2.13;;;13.10;49.90;;;;;;5052334;28;20025;-67
2022/04/17 10:01:15;;;;;;;5.35;2.25;;;13.20;49.60;;;;;;5052195;28;20021;-67
2022/04/17 10:03:40;;;;;;;2.70;1.90;;;13.30;49.10;;;;;;5052330;28;20021;-67
2022/04/17 10:06:07;;;;;;;4.57;2.08;;;13.40;50.60;;;;;;5051966;28;20025;-67
2022/04/17 10:08:33;;;;;;;3.95;2.10;;;13.50;50.60;;;;;;5052158;28;20017;-67
2022/04/17 10:11:00;;;;;;;4.90;2.45;;;13.50;49.10;;;;;;5043970;28;20141;-67
2022/04/17 10:13:26;;;;;;;3.63;1.83;;;13.60;50.00;;;;;;5044114;28;20374;-67
2022/04/17 10:15:54;;;;;;;3.15;2.20;;;13.70;49.90;;;;;;5038459;28;20026;-67
2022/04/17 10:18:22;;;;;;;3.33;2.08;;;13.80;49.80;;;;;;5040904;28;20044;-68
2022/04/17 10:20:49;;;;;;;3.13;1.85;;;13.90;49.20;;;;;;5044332;28;20025;-67
2022/04/17 10:23:16;;;;;;;3.60;1.70;;;14.00;48.20;;;;;;5055876;28;20389;-67
2022/04/17 10:25:43;;;;;;;8.00;2.00;;;14.00;47.40;;;;;;5056082;28;20024;-67
2022/04/17 10:28:10;;;;;;;4.25;2.05;;;14.10;48.20;;;;;;5056023;28;20055;-67
2022/04/17 10:31:10;;;;;;;3.75;1.80;;;14.20;47.80;;;;;;5055048;28;20032;-68
2022/04/17 10:33:41;;;;;;;2.92;1.40;;;14.40;49.20;;;;;;5056003;28;20075;-67
2022/04/17 10:36:33;;;;;;;2.25;1.58;;;14.60;49.10;;;;;;5055648;28;20068;-67
2022/04/17 10:39:07;;;;;;;3.97;2.00;;;14.90;47.90;;;;;;5055874;28;20511;-67
2022/04/17 10:41:33;;;;;;;3.25;1.65;;;15.00;46.90;;;;;;5055971;28;20032;-67
2022/04/17 10:43:59;;;;;;;2.50;1.70;;;15.10;46.10;;;;;;5055711;28;20480;-67
2022/04/17 10:46:25;;;;;;;2.45;1.38;;;15.30;48.30;;;;;;5054472;28;20029;-67
2022/04/17 10:48:58;;;;;;;3.22;1.60;;;15.50;48.10;;;;;;5055863;28;20054;-67
2022/04/17 10:51:26;;;;;;;2.22;1.23;;;15.80;47.70;;;;;;5055360;28;20023;-67
2022/04/17 10:54:07;;;;;;;3.00;2.08;;;16.10;47.50;;;;;;5055527;28;20071;-67
2022/04/17 10:56:58;;;;;;;3.75;1.73;;;16.30;45.50;;;;;;5054300;28;20029;-67
2022/04/17 10:59:32;;;;;;;4.18;2.63;;;16.30;46.60;;;;;;5055472;28;20036;-67
2022/04/17 11:02:08;;;;;;;3.08;2.10;;;16.30;45.30;;;;;;5055448;28;20357;-68
2022/04/17 11:04:50;;;;;;;2.78;1.98;;;16.40;44.70;;;;;;5054768;28;20021;-67
2022/04/17 11:07:15;;;;;;;2.90;1.67;;;17.80;42.60;;;;;;5035465;28;20034;-68
2022/04/17 11:09:44;;;;;;;3.72;1.67;;;19.90;41.70;;;;;;5035409;28;20496;-68
2022/04/17 11:12:10;;;;;;;2.53;1.60;;;21.70;38.80;;;;;;5034858;28;20103;-68
2022/04/17 11:14:36;;;;;;;2.40;1.25;;;22.70;36.60;;;;;;5034915;28;20056;-68
2022/04/17 11:17:08;;;;;;;3.17;1.60;;;24.00;33.50;;;;;;5051299;28;20524;-68
2022/04/17 11:19:35;;;;;;;2.67;2.05;;;24.90;31.20;;;;;;5054969;28;20017;-69
2022/04/17 11:22:03;;;;;;;4.15;1.60;;;25.00;31.00;;;;;;5050477;28;20051;-68
2022/04/17 11:24:55;;;;;;;2.40;1.40;;;24.50;31.30;;;;;;5050629;28;20025;-68
2022/04/17 11:27:41;;;;;;;2.00;1.30;;;23.50;32.80;;;;;;5052980;28;20086;-68
2022/04/17 11:30:28;;;;;;;2.50;1.33;;;23.20;32.80;;;;;;5051482;28;20052;-68
2022/04/17 11:32:55;;;;;;;2.78;1.58;;;22.70;34.50;;;;;;5046405;28;20033;-68
2022/04/17 11:35:25;;;;;;;3.20;1.42;;;22.70;33.60;;;;;;5049917;28;20018;-68
2022/04/17 11:38:01;;;;;;;3.10;1.30;;;22.20;33.10;;;;;;5053050;28;20162;-68
2022/04/17 11:40:29;;;;;;;5.03;2.05;;;22.70;32.80;;;;;;5044331;28;20017;-68
2022/04/17 11:42:55;;;;;;;1.45;0.93;;;23.50;32.70;;;;;;5049962;28;20021;-68
2022/04/17 11:45:26;;;;;;;1.17;0.82;;;24.20;33.20;;;;;;5051752;28;20028;-68
2022/04/17 11:47:53;;;;;;;2.88;1.50;;;24.70;33.30;;;;;;5044097;28;20123;-68
2022/04/17 11:50:27;;;;;;;2.70;1.92;;;24.50;31.30;;;;;;5047501;28;20049;-68
2022/04/17 11:52:55;;;;;;;2.28;1.40;;;23.80;30.30;;;;;;5046730;28;20092;-68
2022/04/17 11:55:30;;;;;;;2.13;1.35;;;23.40;31.90;;;;;;5051277;28;20067;-69
2022/04/17 11:57:57;;;;;;;1.88;1.00;;;23.70;32.70;;;;;;5046669;28;20017;-68
2022/04/17 12:00:24;;;;;;;3.28;2.20;;;24.40;32.50;;;;;;5038795;28;20060;-68
2022/04/17 12:02:55;;;;;;;2.40;2.00;;;24.30;31.20;;;;;;5051209;28;20388;-68
2022/04/17 12:05:20;;;;;;;3.13;2.10;;;23.40;32.90;;;;;;5049777;28;20024;-68
2022/04/17 12:08:01;;;;;;;3.72;2.17;;;23.00;32.20;;;;;;5055449;28;20020;-68
2022/04/17 12:10:28;;;;;;;2.25;1.67;;;22.50;33.50;;;;;;5053694;28;20412;-68
2022/04/17 12:12:53;;;;;;;3.67;2.13;;;21.90;33.40;;;;;;5066186;28;20109;-68
2022/04/17 12:15:20;;;;;;;3.20;2.15;;;21.50;33.90;;;;;;5057107;28;20519;-68
2022/04/17 12:17:56;;;;;;;4.03;1.80;;;21.30;33.90;;;;;;5070200;28;20119;-68
2022/04/17 12:20:21;;;;;;;1.70;1.60;;;21.10;33.70;;;;;;5061361;28;20032;-69
2022/04/17 12:22:47;;;;;;;3.85;1.90;;;20.80;35.70;;;;;;5072381;28;20049;-68
2022/04/17 12:25:18;;;;;;;3.08;1.80;;;20.60;33.80;;;;;;5073226;28;20039;-68
2022/04/17 12:27:48;;;;;;;2.53;1.38;;;20.40;34.80;;;;;;5073546;28;20052;-68
2022/04/17 12:30:25;;;;;;;5.95;2.38;;;20.50;35.30;;;;;;5073463;28;20028;-68
2022/04/17 12:32:52;;;;;;;2.50;1.50;;;20.50;34.20;;;;;;5072645;28;20020;-68
2022/04/17 12:35:22;;;;;;;2.50;1.85;;;20.30;35.00;;;;;;5064772;28;20114;-68
2022/04/17 12:37:48;;;;;;;1.92;1.40;;;20.20;35.40;;;;;;5053884;28;20037;-68
2022/04/17 12:40:18;;;;;;;2.58;1.75;;;20.40;35.70;;;;;;5053346;28;20028;-68
2022/04/17 12:42:44;;;;;;;4.93;2.38;;;20.40;33.70;;;;;;5053648;28;20075;-69
2022/04/17 12:45:21;;;;;;;2.55;1.52;;;20.50;33.90;;;;;;5052334;28;20037;-68
2022/04/17 12:48:00;;;;;;;3.83;1.88;;;20.60;35.20;;;;;;5053604;28;20035;-68
2022/04/17 12:50:26;;;;;;;2.92;1.75;;;20.90;34.00;;;;;;5053527;28;20075;-68
2022/04/17 12:52:56;;;;;;;2.65;1.73;;;20.90;32.90;;;;;;5053468;28;20029;-68
2022/04/17 12:55:34;;;;;;;4.65;2.22;;;20.90;34.20;;;;;;5052871;28;20083;-68
2022/04/17 12:58:01;;;;;;;2.67;1.65;;;20.80;33.60;;;;;;5053245;28;20022;-68
2022/04/17 13:00:28;;;;;;;4.10;2.15;;;20.50;34.00;;;;;;5053099;28;20040;-67
2022/04/17 13:03:11;;;;;;;3.45;2.00;;;20.40;33.70;;;;;;5053284;28;20025;-68
2022/04/17 13:05:37;;;;;;;3.67;2.05;;;20.20;33.30;;;;;;5053040;28;20499;-68
2022/04/17 13:08:05;;;;;;;3.60;1.60;;;20.10;34.30;;;;;;5053020;28;20029;-68
2022/04/17 13:10:31;;;;;;;3.20;1.77;;;20.20;34.90;;;;;;5052967;28;20071;-68